sensor_id;sensor_type;location;lat;lon;timestamp;P1;durP1;ratioP1;P2;durP2;ratioP2
36303;SDS011;22335;49.800;8.596;2022-08-05T00:04:30;4.82;;;4.43;;
36303;SDS011;22335;49.800;8.596;2022-08-05T00:11:18;9.70;;;5.10;;
36303;SDS011;22335;49.800;8.596;2022-08-05T00:18:15;6.30;;;5.30;;
36303;SDS011;22335;49.800;8.596;2022-08-05T00:25:03;10.02;;;6.22;;
36303;SDS011;22335;49.800;8.596;2022-08-05T00:31:55;12.00;;;6.28;;
36303;SDS011;22335;49.800;8.596;2022-08-05T00:38:55;8.80;;;6.70;;
36303;SDS011;22335;49.800;8.596;2022-08-05T00:45:41;9.43;;;6.80;;
36303;SDS011;22335;49.800;8.596;2022-08-05T00:52:30;9.55;;;7.88;;
36303;SDS011;22335;49.800;8.596;2022-08-05T00:59:19;11.82;;;8.68;;
36303;SDS011;22335;49.800;8.596;2022-08-05T01:06:05;9.45;;;7.95;;
36303;SDS011;22335;49.800;8.596;2022-08-05T01:13:02;13.32;;;8.30;;
36303;SDS011;22335;49.800;8.596;2022-08-05T01:20:11;11.02;;;6.88;;
36303;SDS011;22335;49.800;8.596;2022-08-05T01:27:12;9.80;;;6.65;;
36303;SDS011;22335;49.800;8.596;2022-08-05T01:34:40;10.05;;;6.63;;
36303;SDS011;22335;49.800;8.596;2022-08-05T01:41:33;7.20;;;5.68;;
36303;SDS011;22335;49.800;8.596;2022-08-05T01:48:24;7.88;;;6.10;;
36303;SDS011;22335;49.800;8.596;2022-08-05T01:55:15;7.60;;;6.15;;
36303;SDS011;22335;49.800;8.596;2022-08-05T02:02:02;7.18;;;5.53;;
36303;SDS011;22335;49.800;8.596;2022-08-05T02:08:51;6.88;;;5.40;;
36303;SDS011;22335;49.800;8.596;2022-08-05T02:15:42;6.13;;;5.53;;
36303;SDS011;22335;49.800;8.596;2022-08-05T02:22:35;5.05;;;4.65;;
36303;SDS011;22335;49.800;8.596;2022-08-05T02:29:29;9.18;;;5.18;;
36303;SDS011;22335;49.800;8.596;2022-08-05T02:36:42;5.47;;;4.97;;
36303;SDS011;22335;49.800;8.596;2022-08-05T02:43:35;6.95;;;4.95;;
36303;SDS011;22335;49.800;8.596;2022-08-05T03:04:33;7.13;;;5.60;;
36303;SDS011;22335;49.800;8.596;2022-08-05T03:11:19;7.72;;;5.13;;
36303;SDS011;22335;49.800;8.596;2022-08-05T03:18:28;6.47;;;5.82;;
36303;SDS011;22335;49.800;8.596;2022-08-05T03:25:16;6.63;;;6.00;;
36303;SDS011;22335;49.800;8.596;2022-08-05T03:32:24;6.13;;;5.00;;
36303;SDS011;22335;49.800;8.596;2022-08-05T03:39:11;7.38;;;5.97;;
36303;SDS011;22335;49.800;8.596;2022-08-05T03:46:09;8.40;;;6.13;;
36303;SDS011;22335;49.800;8.596;2022-08-05T03:52:59;8.10;;;6.10;;
36303;SDS011;22335;49.800;8.596;2022-08-05T04:00:12;6.93;;;6.20;;
36303;SDS011;22335;49.800;8.596;2022-08-05T04:07:02;6.70;;;5.95;;
36303;SDS011;22335;49.800;8.596;2022-08-05T04:13:50;7.93;;;5.72;;
36303;SDS011;22335;49.800;8.596;2022-08-05T04:20:36;6.15;;;5.68;;
36303;SDS011;22335;49.800;8.596;2022-08-05T04:27:28;6.75;;;5.97;;
36303;SDS011;22335;49.800;8.596;2022-08-05T04:34:33;6.43;;;5.85;;
36303;SDS011;22335;49.800;8.596;2022-08-05T04:41:23;6.63;;;5.93;;
36303;SDS011;22335;49.800;8.596;2022-08-05T04:48:20;6.82;;;5.97;;
36303;SDS011;22335;49.800;8.596;2022-08-05T04:55:08;8.93;;;6.88;;
36303;SDS011;22335;49.800;8.596;2022-08-05T05:01:55;7.53;;;6.80;;
36303;SDS011;22335;49.800;8.596;2022-08-05T05:09:04;7.20;;;6.60;;
36303;SDS011;22335;49.800;8.596;2022-08-05T05:15:54;7.22;;;6.53;;
36303;SDS011;22335;49.800;8.596;2022-08-05T05:22:46;8.68;;;7.18;;
36303;SDS011;22335;49.800;8.596;2022-08-05T05:29:35;9.07;;;6.85;;
36303;SDS011;22335;49.800;8.596;2022-08-05T05:36:40;7.47;;;6.78;;
36303;SDS011;22335;49.800;8.596;2022-08-05T05:43:28;7.65;;;6.95;;
36303;SDS011;22335;49.800;8.596;2022-08-05T05:57:25;7.57;;;6.78;;
36303;SDS011;22335;49.800;8.596;2022-08-05T06:04:30;7.45;;;6.65;;
36303;SDS011;22335;49.800;8.596;2022-08-05T06:11:18;6.90;;;6.32;;
36303;SDS011;22335;49.800;8.596;2022-08-05T06:18:04;7.63;;;6.18;;
36303;SDS011;22335;49.800;8.596;2022-08-05T06:24:52;6.22;;;5.75;;
36303;SDS011;22335;49.800;8.596;2022-08-05T06:31:42;6.47;;;5.95;;
36303;SDS011;22335;49.800;8.596;2022-08-05T06:38:30;6.13;;;5.70;;
36303;SDS011;22335;49.800;8.596;2022-08-05T06:45:17;6.10;;;5.55;;
36303;SDS011;22335;49.800;8.596;2022-08-05T06:52:26;6.78;;;5.88;;
36303;SDS011;22335;49.800;8.596;2022-08-05T06:59:17;6.47;;;5.60;;
36303;SDS011;22335;49.800;8.596;2022-08-05T07:06:04;6.45;;;5.95;;
36303;SDS011;22335;49.800;8.596;2022-08-05T07:12:58;7.95;;;5.80;;
36303;SDS011;22335;49.800;8.596;2022-08-05T07:20:16;8.95;;;6.88;;
36303;SDS011;22335;49.800;8.596;2022-08-05T07:27:19;5.75;;;5.15;;
36303;SDS011;22335;49.800;8.596;2022-08-05T07:34:27;6.53;;;6.00;;
36303;SDS011;22335;49.800;8.596;2022-08-05T07:41:14;6.47;;;5.53;;
36303;SDS011;22335;49.800;8.596;2022-08-05T07:48:22;9.57;;;5.80;;
36303;SDS011;22335;49.800;8.596;2022-08-05T08:02:36;6.72;;;6.05;;
36303;SDS011;22335;49.800;8.596;2022-08-05T08:16:31;9.57;;;5.82;;
36303;SDS011;22335;49.800;8.596;2022-08-05T08:23:31;6.90;;;5.50;;
36303;SDS011;22335;49.800;8.596;2022-08-05T08:30:37;5.68;;;5.25;;
36303;SDS011;22335;49.800;8.596;2022-08-05T08:37:32;6.45;;;5.60;;
36303;SDS011;22335;49.800;8.596;2022-08-05T08:44:27;5.75;;;5.35;;
36303;SDS011;22335;49.800;8.596;2022-08-05T08:51:35;6.40;;;5.90;;
36303;SDS011;22335;49.800;8.596;2022-08-05T08:58:47;5.75;;;5.35;;
36303;SDS011;22335;49.800;8.596;2022-08-05T09:05:33;6.18;;;5.78;;
36303;SDS011;22335;49.800;8.596;2022-08-05T09:12:39;7.10;;;5.85;;
36303;SDS011;22335;49.800;8.596;2022-08-05T09:19:34;6.10;;;5.70;;
36303;SDS011;22335;49.800;8.596;2022-08-05T09:26:40;6.30;;;5.80;;
36303;SDS011;22335;49.800;8.596;2022-08-05T09:33:25;6.65;;;5.93;;
36303;SDS011;22335;49.800;8.596;2022-08-05T09:40:31;5.70;;;5.35;;
36303;SDS011;22335;49.800;8.596;2022-08-05T09:47:33;6.25;;;5.75;;
36303;SDS011;22335;49.800;8.596;2022-08-05T09:54:36;8.73;;;5.47;;
36303;SDS011;22335;49.800;8.596;2022-08-05T10:01:29;5.97;;;5.35;;
36303;SDS011;22335;49.800;8.596;2022-08-05T10:08:23;6.57;;;5.55;;
36303;SDS011;22335;49.800;8.596;2022-08-05T10:15:20;6.05;;;5.60;;
36303;SDS011;22335;49.800;8.596;2022-08-05T10:22:10;5.68;;;5.28;;
36303;SDS011;22335;49.800;8.596;2022-08-05T10:29:15;5.53;;;5.10;;
36303;SDS011;22335;49.800;8.596;2022-08-05T10:36:21;5.13;;;4.82;;
36303;SDS011;22335;49.800;8.596;2022-08-05T10:43:11;5.47;;;5.07;;
36303;SDS011;22335;49.800;8.596;2022-08-05T10:50:17;5.47;;;5.07;;
36303;SDS011;22335;49.800;8.596;2022-08-05T10:57:24;5.40;;;4.88;;
36303;SDS011;22335;49.800;8.596;2022-08-05T11:04:16;5.38;;;5.03;;
36303;SDS011;22335;49.800;8.596;2022-08-05T11:18:33;5.65;;;5.15;;
36303;SDS011;22335;49.800;8.596;2022-08-05T11:25:34;5.17;;;4.87;;
36303;SDS011;22335;49.800;8.596;2022-08-05T11:32:44;5.80;;;5.40;;
36303;SDS011;22335;49.800;8.596;2022-08-05T11:46:49;5.35;;;4.90;;
36303;SDS011;22335;49.800;8.596;2022-08-05T11:53:52;5.40;;;5.00;;
36303;SDS011;22335;49.800;8.596;2022-08-05T12:00:40;5.22;;;4.93;;
36303;SDS011;22335;49.800;8.596;2022-08-05T12:07:36;5.75;;;5.25;;
36303;SDS011;22335;49.800;8.596;2022-08-05T12:14:42;5.53;;;5.13;;
36303;SDS011;22335;49.800;8.596;2022-08-05T12:21:29;5.25;;;4.95;;
36303;SDS011;22335;49.800;8.596;2022-08-05T12:28:31;6.30;;;5.70;;
36303;SDS011;22335;49.800;8.596;2022-08-05T12:35:19;6.25;;;5.82;;
36303;SDS011;22335;49.800;8.596;2022-08-05T12:42:20;6.05;;;5.65;;
36303;SDS011;22335;49.800;8.596;2022-08-05T12:49:10;6.20;;;5.68;;
36303;SDS011;22335;49.800;8.596;2022-08-05T12:55:59;5.90;;;5.50;;
36303;SDS011;22335;49.800;8.596;2022-08-05T13:03:06;6.00;;;5.53;;
36303;SDS011;22335;49.800;8.596;2022-08-05T13:09:57;6.30;;;5.78;;
36303;SDS011;22335;49.800;8.596;2022-08-05T13:16:48;6.03;;;5.57;;
36303;SDS011;22335;49.800;8.596;2022-08-05T13:23:37;6.68;;;6.07;;
36303;SDS011;22335;49.800;8.596;2022-08-05T13:30:35;6.60;;;6.00;;
36303;SDS011;22335;49.800;8.596;2022-08-05T13:37:21;6.22;;;5.72;;
36303;SDS011;22335;49.800;8.596;2022-08-05T13:44:15;6.60;;;6.05;;
36303;SDS011;22335;49.800;8.596;2022-08-05T13:51:07;6.38;;;5.88;;
36303;SDS011;22335;49.800;8.596;2022-08-05T13:57:56;6.95;;;6.45;;
36303;SDS011;22335;49.800;8.596;2022-08-05T14:04:45;6.25;;;5.65;;
36303;SDS011;22335;49.800;8.596;2022-08-05T14:11:46;7.25;;;6.65;;
36303;SDS011;22335;49.800;8.596;2022-08-05T14:18:52;6.72;;;6.13;;
36303;SDS011;22335;49.800;8.596;2022-08-05T14:25:44;6.57;;;6.05;;
36303;SDS011;22335;49.800;8.596;2022-08-05T14:32:37;6.43;;;5.93;;
36303;SDS011;22335;49.800;8.596;2022-08-05T14:39:23;6.93;;;6.32;;
36303;SDS011;22335;49.800;8.596;2022-08-05T14:46:09;6.97;;;6.40;;
36303;SDS011;22335;49.800;8.596;2022-08-05T14:52:57;7.32;;;6.75;;
36303;SDS011;22335;49.800;8.596;2022-08-05T14:59:46;9.77;;;8.70;;
36303;SDS011;22335;49.800;8.596;2022-08-05T15:06:33;10.43;;;9.52;;
36303;SDS011;22335;49.800;8.596;2022-08-05T15:13:23;13.40;;;11.57;;
36303;SDS011;22335;49.800;8.596;2022-08-05T15:20:29;15.85;;;14.30;;
36303;SDS011;22335;49.800;8.596;2022-08-05T15:27:16;17.80;;;14.95;;
36303;SDS011;22335;49.800;8.596;2022-08-05T15:34:04;18.88;;;16.58;;
36303;SDS011;22335;49.800;8.596;2022-08-05T15:41:09;17.95;;;16.10;;
36303;SDS011;22335;49.800;8.596;2022-08-05T15:48:04;16.33;;;14.55;;
36303;SDS011;22335;49.800;8.596;2022-08-05T15:54:57;15.30;;;13.73;;
36303;SDS011;22335;49.800;8.596;2022-08-05T16:01:44;14.30;;;12.80;;
36303;SDS011;22335;49.800;8.596;2022-08-05T16:08:33;14.45;;;13.25;;
36303;SDS011;22335;49.800;8.596;2022-08-05T16:15:23;12.88;;;11.57;;
36303;SDS011;22335;49.800;8.596;2022-08-05T16:22:14;12.35;;;11.05;;
36303;SDS011;22335;49.800;8.596;2022-08-05T16:29:08;12.23;;;11.02;;
36303;SDS011;22335;49.800;8.596;2022-08-05T16:35:58;10.07;;;9.07;;
36303;SDS011;22335;49.800;8.596;2022-08-05T16:42:50;9.50;;;8.70;;
36303;SDS011;22335;49.800;8.596;2022-08-05T16:49:35;8.88;;;8.07;;
36303;SDS011;22335;49.800;8.596;2022-08-05T16:56:25;8.30;;;7.38;;
36303;SDS011;22335;49.800;8.596;2022-08-05T17:03:14;7.82;;;7.07;;
36303;SDS011;22335;49.800;8.596;2022-08-05T17:10:01;5.72;;;5.25;;
36303;SDS011;22335;49.800;8.596;2022-08-05T17:16:49;6.25;;;5.15;;
36303;SDS011;22335;49.800;8.596;2022-08-05T17:23:35;4.70;;;4.45;;
36303;SDS011;22335;49.800;8.596;2022-08-05T17:37:35;4.78;;;4.40;;
36303;SDS011;22335;49.800;8.596;2022-08-05T17:44:28;4.43;;;4.22;;
36303;SDS011;22335;49.800;8.596;2022-08-05T17:51:15;4.28;;;4.00;;
36303;SDS011;22335;49.800;8.596;2022-08-05T17:58:04;4.95;;;4.60;;
36303;SDS011;22335;49.800;8.596;2022-08-05T18:04:53;4.22;;;4.00;;
36303;SDS011;22335;49.800;8.596;2022-08-05T18:11:39;4.55;;;4.25;;
36303;SDS011;22335;49.800;8.596;2022-08-05T18:18:33;4.32;;;4.03;;
36303;SDS011;22335;49.800;8.596;2022-08-05T18:25:20;3.95;;;3.75;;
36303;SDS011;22335;49.800;8.596;2022-08-05T18:32:13;4.55;;;4.22;;
36303;SDS011;22335;49.800;8.596;2022-08-05T18:39:03;4.57;;;4.18;;
36303;SDS011;22335;49.800;8.596;2022-08-05T18:46:09;4.28;;;4.00;;
36303;SDS011;22335;49.800;8.596;2022-08-05T18:52:54;4.47;;;4.22;;
36303;SDS011;22335;49.800;8.596;2022-08-05T18:59:42;4.60;;;4.40;;
36303;SDS011;22335;49.800;8.596;2022-08-05T19:06:43;4.70;;;4.50;;
36303;SDS011;22335;49.800;8.596;2022-08-05T19:13:29;4.70;;;4.40;;
36303;SDS011;22335;49.800;8.596;2022-08-05T19:20:19;4.32;;;4.03;;
36303;SDS011;22335;49.800;8.596;2022-08-05T19:27:05;4.40;;;4.18;;
36303;SDS011;22335;49.800;8.596;2022-08-05T19:33:53;4.72;;;4.43;;
36303;SDS011;22335;49.800;8.596;2022-08-05T19:40:42;4.68;;;4.47;;
36303;SDS011;22335;49.800;8.596;2022-08-05T19:47:28;4.55;;;4.35;;
36303;SDS011;22335;49.800;8.596;2022-08-05T19:54:14;5.25;;;4.55;;
36303;SDS011;22335;49.800;8.596;2022-08-05T20:01:14;4.72;;;4.45;;
36303;SDS011;22335;49.800;8.596;2022-08-05T20:08:09;4.45;;;4.05;;
36303;SDS011;22335;49.800;8.596;2022-08-05T20:14:55;4.78;;;4.47;;
36303;SDS011;22335;49.800;8.596;2022-08-05T20:21:44;4.82;;;4.53;;
36303;SDS011;22335;49.800;8.596;2022-08-05T20:28:30;5.10;;;4.80;;
36303;SDS011;22335;49.800;8.596;2022-08-05T20:35:16;4.63;;;4.25;;
36303;SDS011;22335;49.800;8.596;2022-08-05T20:42:05;5.18;;;4.68;;
36303;SDS011;22335;49.800;8.596;2022-08-05T20:48:52;4.70;;;4.30;;
36303;SDS011;22335;49.800;8.596;2022-08-05T20:55:37;4.45;;;4.25;;
36303;SDS011;22335;49.800;8.596;2022-08-05T21:02:45;4.95;;;4.60;;
36303;SDS011;22335;49.800;8.596;2022-08-05T21:09:37;5.35;;;4.88;;
36303;SDS011;22335;49.800;8.596;2022-08-05T21:16:37;5.38;;;4.93;;
36303;SDS011;22335;49.800;8.596;2022-08-05T21:23:25;5.20;;;4.80;;
36303;SDS011;22335;49.800;8.596;2022-08-05T21:30:19;4.88;;;4.47;;
36303;SDS011;22335;49.800;8.596;2022-08-05T21:37:06;5.65;;;5.25;;
36303;SDS011;22335;49.800;8.596;2022-08-05T21:43:55;5.32;;;4.93;;
36303;SDS011;22335;49.800;8.596;2022-08-05T21:50:45;4.93;;;4.53;;
36303;SDS011;22335;49.800;8.596;2022-08-05T21:57:34;4.78;;;4.47;;
36303;SDS011;22335;49.800;8.596;2022-08-05T22:04:25;5.43;;;4.93;;
36303;SDS011;22335;49.800;8.596;2022-08-05T22:11:11;4.90;;;4.60;;
36303;SDS011;22335;49.800;8.596;2022-08-05T22:17:58;5.00;;;4.60;;
36303;SDS011;22335;49.800;8.596;2022-08-05T22:24:46;6.10;;;5.18;;
36303;SDS011;22335;49.800;8.596;2022-08-05T22:31:58;4.30;;;4.10;;
36303;SDS011;22335;49.800;8.596;2022-08-05T22:38:44;5.15;;;4.85;;
36303;SDS011;22335;49.800;8.596;2022-08-05T22:45:32;5.07;;;4.57;;
36303;SDS011;22335;49.800;8.596;2022-08-05T22:52:19;5.38;;;4.97;;
36303;SDS011;22335;49.800;8.596;2022-08-05T23:06:22;5.18;;;4.75;;
36303;SDS011;22335;49.800;8.596;2022-08-05T23:13:09;4.95;;;4.55;;
36303;SDS011;22335;49.800;8.596;2022-08-05T23:19:56;5.00;;;4.70;;
36303;SDS011;22335;49.800;8.596;2022-08-05T23:26:46;5.43;;;5.03;;
36303;SDS011;22335;49.800;8.596;2022-08-05T23:33:31;5.60;;;4.72;;
36303;SDS011;22335;49.800;8.596;2022-08-05T23:40:37;5.40;;;5.00;;
36303;SDS011;22335;49.800;8.596;2022-08-05T23:47:33;5.28;;;4.70;;
36303;SDS011;22335;49.800;8.596;2022-08-05T23:54:29;5.22;;;4.88;;
